Time;durP1;ratioP1;P1;durP2;ratioP2;P2;SDS_P1;SDS_P2;PMS_P1;PMS_P2;Temp;Humidity;BMP_temperature;BMP_pressure;BME280_temperature;BME280_humidity;BME280_pressure;Samples;Min_cycle;Max_cycle;Signal;HPM_P1;HPM_P2
2022/12/06 00:00:44;;;;;;;9.13;6.32;;;8.00;63.60;;;6.60;65.85;101357.47;12159275;19;20026;-83
2022/12/06 00:04:46;;;;;;;9.27;5.88;;;8.00;63.60;;;6.67;65.69;101363.34;12157686;19;20885;-83
2022/12/06 00:08:49;;;;;;;9.02;6.05;;;8.20;63.70;;;6.47;65.88;101334.50;12158735;19;20023;-83
2022/12/06 00:12:51;;;;;;;9.88;5.30;;;7.90;63.50;;;6.55;65.89;101355.88;12162508;19;20400;-83
2022/12/06 00:16:53;;;;;;;7.60;5.97;;;7.90;63.60;;;6.48;65.69;101347.44;12158342;19;21304;-83
2022/12/06 00:20:56;;;;;;;10.00;6.00;;;7.90;63.60;;;6.34;65.66;101316.66;12159521;19;20607;-83
2022/12/06 00:24:57;;;;;;;7.78;5.47;;;7.90;64.30;;;6.62;65.72;101368.66;12156230;19;20334;-83
2022/12/06 00:29:00;;;;;;;8.77;5.43;;;7.90;63.70;;;6.31;65.67;101318.50;12151512;19;20662;-83
2022/12/06 00:33:02;;;;;;;6.57;4.82;;;7.90;63.60;;;6.50;65.76;101348.22;12155165;19;20018;-83
2022/12/06 00:37:03;;;;;;;6.55;5.20;;;7.90;63.60;;;6.60;65.85;101357.47;12154434;19;20026;-84
2022/12/06 00:41:12;;;;;;;10.13;6.20;;;7.90;63.60;;;6.63;65.65;101369.50;12155090;19;20038;-83
2022/12/06 00:45:13;;;;;;;9.60;5.88;;;7.90;63.60;;;6.60;65.67;101362.66;12149896;19;20020;-83
2022/12/06 00:49:15;;;;;;;9.13;5.88;;;7.90;63.40;;;6.62;65.69;101366.06;12152143;19;20014;-83
2022/12/06 00:53:18;;;;;;;9.48;6.43;;;7.90;63.50;;;6.58;65.57;101348.84;12155690;19;20026;-83
2022/12/06 00:57:20;;;;;;;7.80;5.90;;;7.90;63.40;;;6.61;65.69;101359.13;12149848;19;20307;-83
2022/12/06 01:01:26;;;;;;;7.70;5.82;;;7.90;63.40;;;6.56;65.67;101354.97;12156551;19;20770;-83
2022/12/06 01:05:28;;;;;;;6.43;5.25;;;7.90;63.40;;;6.33;65.82;101316.72;12165241;19;20886;-83
2022/12/06 01:09:30;;;;;;;8.23;5.55;;;7.90;63.40;;;6.59;65.68;101360.13;12163500;19;20022;-83
2022/12/06 01:13:32;;;;;;;8.27;5.90;;;7.90;63.50;;;6.59;65.74;101354.91;12166844;19;20364;-83
2022/12/06 01:17:34;;;;;;;7.30;5.50;;;7.90;63.50;;;6.59;65.69;101360.13;12164462;19;20025;-83
2022/12/06 01:21:36;;;;;;;5.80;4.68;;;7.90;63.50;;;6.51;65.58;101344.75;12164920;19;20450;-83
2022/12/06 01:25:38;;;;;;;7.88;5.32;;;7.90;63.70;;;6.59;65.66;101360.97;12165800;19;20387;-83
2022/12/06 01:29:40;;;;;;;7.38;5.78;;;7.90;63.30;;;6.43;65.71;101333.75;12167709;19;20608;-83
2022/12/06 01:33:42;;;;;;;6.65;5.15;;;7.90;64.00;;;6.53;65.68;101350.72;12163785;19;20512;-83
2022/12/06 01:37:44;;;;;;;7.15;5.25;;;7.90;63.40;;;6.54;65.81;101354.19;12161751;19;20035;-83
2022/12/06 01:41:46;;;;;;;7.68;6.00;;;7.80;63.30;;;6.54;65.69;101351.59;12164260;19;20431;-84
2022/12/06 01:45:48;;;;;;;5.18;4.53;;;7.80;63.30;;;6.46;65.79;101332.81;12160739;19;20030;-83
2022/12/06 01:50:09;;;;;;;6.10;4.68;;;7.80;63.30;;;6.50;65.70;101350.81;12163806;19;20023;-82
2022/12/06 01:54:16;;;;;;;6.05;5.00;;;7.80;63.40;;;6.44;65.75;101332.84;12160903;19;20014;-83
2022/12/06 01:58:26;;;;;;;5.85;5.00;;;7.80;63.30;;;6.49;65.68;101337.91;12162785;19;20055;-83
2022/12/06 02:02:28;;;;;;;6.60;4.88;;;7.80;63.20;;;6.42;65.81;101322.50;12163155;19;20725;-83
2022/12/06 02:06:31;;;;;;;6.65;5.30;;;7.90;63.30;;;6.37;65.71;101313.13;12160146;19;20025;-83
2022/12/06 02:10:33;;;;;;;6.03;4.80;;;7.80;63.20;;;6.43;65.82;101319.03;12159976;19;20926;-83
2022/12/06 02:14:35;;;;;;;6.15;4.80;;;7.80;63.30;;;6.39;65.86;101316.56;12160015;19;20125;-83
2022/12/06 02:18:57;;;;;;;7.22;5.25;;;7.80;63.10;;;6.44;65.76;101325.06;12161691;19;20022;-83
2022/12/06 02:23:48;;;;;;;6.97;5.15;;;7.80;63.10;;;6.44;65.77;101322.47;12159524;19;20055;-83
2022/12/06 02:28:03;;;;;;;6.40;4.85;;;7.80;63.10;;;6.44;65.83;101319.88;12161539;19;20094;-83
2022/12/06 02:32:22;;;;;;;5.50;4.78;;;7.80;63.10;;;6.05;65.80;101263.06;12164564;19;20014;-83
2022/12/06 02:37:13;;;;;;;5.18;4.55;;;7.90;63.10;;;6.26;65.87;101297.03;12160434;19;20026;-83
2022/12/06 02:41:31;;;;;;;6.43;4.82;;;7.70;63.10;;;6.28;65.60;101301.28;12154491;19;20015;-83
2022/12/06 02:45:41;;;;;;;6.60;4.82;;;7.70;63.10;;;6.27;65.85;101285.78;12157120;19;20373;-83
2022/12/06 02:49:48;;;;;;;6.65;5.35;;;7.70;63.00;;;6.34;65.69;101302.84;12159144;19;20018;-83
2022/12/06 02:53:55;;;;;;;7.00;5.07;;;7.70;63.10;;;6.34;65.78;101292.47;12161842;19;20384;-83
2022/12/06 02:57:56;;;;;;;6.00;4.70;;;7.70;63.10;;;6.30;65.64;101275.31;12162412;19;20859;-83
2022/12/06 03:02:03;;;;;;;7.15;4.43;;;7.70;63.10;;;6.32;65.63;101283.88;12153735;19;20026;-83
2022/12/06 03:06:30;;;;;;;6.97;5.75;;;7.70;63.00;;;6.29;65.83;101283.97;12150808;19;20029;-83
2022/12/06 03:10:43;;;;;;;6.57;4.57;;;7.70;63.00;;;6.30;65.53;101280.50;12160935;19;20022;-83
2022/12/06 03:15:06;;;;;;;5.68;4.50;;;7.70;62.90;;;6.23;65.66;101271.19;12163238;19;20372;-83
2022/12/06 03:19:26;;;;;;;5.53;4.88;;;7.70;62.90;;;6.27;65.65;101276.25;12162909;19;20277;-83
2022/12/06 03:23:39;;;;;;;6.53;4.30;;;7.60;62.90;;;6.17;65.83;101259.25;12157560;19;20020;-83
2022/12/06 03:27:42;;;;;;;6.55;4.25;;;7.60;62.90;;;6.11;65.64;101230.91;12156627;19;20019;-83
2022/12/06 03:31:46;;;;;;;5.05;4.18;;;7.60;62.90;;;6.25;65.61;101253.84;12158457;19;20147;-83
2022/12/06 03:35:52;;;;;;;7.43;5.22;;;7.60;62.90;;;6.22;65.83;101239.22;12158499;19;20341;-83
2022/12/06 03:40:06;;;;;;;6.75;5.00;;;7.60;62.90;;;6.25;65.73;101251.25;12158746;19;20006;-83
2022/12/06 03:44:08;;;;;;;7.13;4.38;;;7.60;62.90;;;6.19;65.60;101247.94;12161696;19;20035;-83
2022/12/06 03:48:32;;;;;;;6.65;5.28;;;7.70;62.90;;;6.15;65.68;101240.28;12156057;19;20799;-83
2022/12/06 03:52:35;;;;;;;6.15;4.78;;;7.50;62.80;;;6.18;65.71;101238.47;12159116;19;20880;-82
2022/12/06 03:56:37;;;;;;;5.82;4.85;;;7.50;62.90;;;6.13;65.52;101232.56;12154243;19;20023;-82
2022/12/06 04:00:39;;;;;;;6.38;5.25;;;7.50;62.90;;;6.21;65.75;101240.09;12150981;19;20025;-83
2022/12/06 04:04:41;;;;;;;7.15;5.50;;;7.50;62.90;;;6.04;65.75;101219.84;12157728;19;20034;-82
2022/12/06 04:08:43;;;;;;;8.85;5.43;;;7.50;62.80;;;6.08;65.78;101223.22;12155893;19;20029;-82
2022/12/06 04:12:59;;;;;;;8.73;5.82;;;7.50;62.80;;;6.08;65.60;101221.47;12158545;19;20019;-83
2022/12/06 04:25:35;;;;;;;7.25;5.25;;;7.40;62.70;;;6.06;65.55;101228.44;12155567;19;20303;-83
2022/12/06 04:46:59;;;;;;;6.57;4.65;;;7.30;62.80;;;5.87;65.66;101186.59;12164383;19;20760;-82
2022/12/06 04:51:01;;;;;;;7.72;5.75;;;7.30;62.90;;;5.90;65.88;101183.94;12166408;19;20472;-82
2022/12/06 04:55:04;;;;;;;7.10;5.07;;;7.30;63.00;;;6.05;65.61;101200.84;12163295;19;20018;-83
2022/12/06 04:59:06;;;;;;;6.82;4.85;;;7.40;62.90;;;6.04;65.53;101204.31;12169596;19;20927;-83
2022/12/06 05:03:07;;;;;;;7.93;5.05;;;7.40;62.80;;;5.93;65.88;101180.41;12171248;19;20376;-83
2022/12/06 05:07:10;;;;;;;7.70;5.40;;;7.30;62.70;;;5.73;65.73;101153.31;12161636;19;20027;-83
2022/12/06 05:11:12;;;;;;;7.28;4.78;;;7.30;63.10;;;5.92;65.74;101179.56;12173647;19;20026;-82
2022/12/06 05:15:13;;;;;;;7.35;5.18;;;7.30;62.80;;;5.98;65.62;101194.13;12167632;19;20035;-84
2022/12/06 05:19:18;;;;;;;6.50;5.40;;;7.30;62.80;;;6.00;65.68;101199.28;12172685;19;20602;-83
2022/12/06 05:23:19;;;;;;;9.25;6.15;;;7.30;62.90;;;5.99;65.63;101200.97;12170716;19;20296;-83
2022/12/06 05:27:21;;;;;;;7.93;5.40;;;7.30;62.90;;;5.98;65.55;101192.38;12157981;19;20049;-83
2022/12/06 05:31:24;;;;;;;8.43;5.78;;;7.40;62.90;;;5.93;65.85;101181.28;12164221;19;20022;-83
2022/12/06 05:35:26;;;;;;;10.25;5.60;;;7.30;62.80;;;6.00;65.74;101194.94;12161639;19;20018;-83
2022/12/06 05:39:28;;;;;;;8.52;5.63;;;7.30;62.90;;;5.98;65.84;101196.72;12167002;19;20022;-83
2022/12/06 05:43:30;;;;;;;9.32;5.20;;;7.30;62.80;;;5.90;65.68;101177.91;12167613;19;20018;-83
2022/12/06 05:47:32;;;;;;;8.82;5.75;;;7.30;62.90;;;6.03;65.84;101194.00;12176645;19;20404;-83
2022/12/06 05:51:33;;;;;;;7.43;5.18;;;7.50;63.10;;;5.96;65.65;101178.59;12178299;19;20354;-83
2022/12/06 05:55:35;;;;;;;8.00;5.63;;;7.40;62.90;;;6.02;65.92;101181.91;12182202;19;20137;-83
2022/12/06 05:59:37;;;;;;;7.78;5.68;;;7.40;62.90;;;5.79;65.53;101141.09;12179113;19;20725;-82
2022/12/06 06:03:39;;;;;;;8.55;5.63;;;7.40;62.80;;;5.97;65.66;101174.28;12163192;19;20014;-83
2022/12/06 06:07:41;;;;;;;9.45;5.55;;;7.40;62.80;;;5.88;65.80;101158.94;12159971;19;20019;-83
2022/12/06 06:11:46;;;;;;;6.65;4.63;;;7.40;62.80;;;6.05;65.77;101187.88;12159178;19;20025;-82
2022/12/06 06:15:49;;;;;;;9.27;5.32;;;7.40;62.80;;;5.99;65.60;101177.66;12157164;19;20038;-82
2022/12/06 06:19:51;;;;;;;7.93;4.90;;;7.40;62.70;;;6.10;65.64;101185.13;12157176;19;20033;-83
2022/12/06 06:23:56;;;;;;;7.28;5.13;;;7.70;62.90;;;6.07;65.64;101182.63;12153900;19;20360;-83
2022/12/06 06:27:58;;;;;;;6.30;5.15;;;7.50;62.70;;;6.11;65.67;101189.44;12157208;19;20391;-83
2022/12/06 06:32:00;;;;;;;6.22;4.88;;;7.40;62.60;;;6.08;65.86;101186.94;12160738;19;20292;-83
2022/12/06 06:36:01;;;;;;;5.82;4.55;;;7.50;62.60;;;6.09;65.86;101205.03;12161420;19;20047;-83
2022/12/06 06:40:04;;;;;;;8.88;5.22;;;7.50;62.60;;;6.10;65.67;101206.75;12161656;19;20018;-83
2022/12/06 06:44:06;;;;;;;6.63;4.65;;;7.40;62.50;;;6.06;65.55;101194.75;12162802;19;20021;-83
2022/12/06 06:48:08;;;;;;;6.30;4.70;;;7.40;62.50;;;6.02;65.84;101192.28;12159890;19;20372;-83
2022/12/06 06:52:09;;;;;;;5.75;4.00;;;7.40;62.40;;;6.07;65.62;101190.41;12162608;19;20020;-82
2022/12/06 06:56:11;;;;;;;5.80;4.05;;;7.70;62.70;;;5.97;65.68;101182.06;12163314;19;20475;-83
2022/12/06 07:00:13;;;;;;;6.00;4.47;;;7.60;62.50;;;6.01;65.50;101191.44;12157508;19;20304;-83
2022/12/06 07:04:16;;;;;;;5.10;3.70;;;7.40;62.30;;;6.00;65.66;101184.56;12152363;19;20507;-83
2022/12/06 07:08:18;;;;;;;4.05;3.47;;;7.40;62.30;;;6.02;65.59;101192.28;12156522;19;20011;-84
2022/12/06 07:12:19;;;;;;;4.25;3.65;;;7.40;62.40;;;6.03;65.58;101204.38;12155670;19;20038;-83
2022/12/06 07:16:21;;;;;;;5.15;3.58;;;7.40;62.40;;;5.98;65.58;101197.56;12150122;19;20014;-82
2022/12/06 07:20:23;;;;;;;3.95;3.55;;;7.40;62.60;;;6.05;65.62;101216.38;12158356;19;20025;-82
2022/12/06 07:24:25;;;;;;;5.10;3.60;;;7.50;62.60;;;5.98;65.61;101205.31;12158044;19;20327;-82
2022/12/06 07:28:27;;;;;;;5.18;4.07;;;7.40;62.50;;;6.02;65.64;101208.66;12154123;19;20109;-84
2022/12/06 07:32:35;;;;;;;4.82;3.58;;;7.40;62.50;;;5.91;65.54;101190.81;12161623;19;20014;-82
2022/12/06 07:36:37;;;;;;;5.05;4.07;;;7.40;62.50;;;5.93;65.76;101193.38;12153754;19;20026;-82
2022/12/06 07:40:38;;;;;;;4.82;3.45;;;7.50;62.60;;;5.97;65.77;101205.38;12159230;19;20583;-82
2022/12/06 07:49:00;;;;;;;4.20;3.33;;;7.40;62.60;;;5.90;65.63;101191.69;12159202;19;20015;-83
2022/12/06 07:53:02;;;;;;;5.18;3.38;;;7.40;62.60;;;6.00;65.67;101204.44;12155835;19;20018;-83
2022/12/06 07:57:04;;;;;;;4.40;3.80;;;7.40;62.70;;;6.01;65.70;101209.56;12158873;19;20014;-82
2022/12/06 08:01:06;;;;;;;4.95;4.00;;;7.40;62.60;;;6.02;65.79;101210.41;12156089;19;20884;-83
2022/12/06 08:05:08;;;;;;;4.90;3.55;;;7.40;62.70;;;5.88;65.64;101180.53;12157865;19;20006;-82
2022/12/06 08:09:11;;;;;;;4.65;3.70;;;7.60;62.70;;;5.97;65.54;101195.03;12155711;19;20415;-82
2022/12/06 08:13:12;;;;;;;4.53;3.95;;;7.40;62.60;;;6.04;65.76;101198.28;12153538;19;20745;-82
2022/12/06 08:17:14;;;;;;;6.82;4.30;;;7.40;62.60;;;5.94;65.90;101195.06;12150138;19;20274;-82
2022/12/06 08:21:16;;;;;;;5.18;4.28;;;7.40;62.60;;;6.05;65.75;101207.72;12140531;19;20022;-82
2022/12/06 08:25:18;;;;;;;4.05;3.42;;;7.60;62.70;;;5.99;65.60;101193.22;12146241;19;20123;-83
2022/12/06 08:29:20;;;;;;;4.22;3.58;;;7.40;62.50;;;5.84;65.55;101175.50;12148341;19;20022;-83
2022/12/06 08:33:22;;;;;;;3.50;3.05;;;7.60;62.70;;;6.04;65.73;101206.88;12147284;19;20039;-83
2022/12/06 08:37:23;;;;;;;3.45;3.15;;;7.40;62.40;;;6.04;65.57;101204.31;12148135;19;20044;-83
2022/12/06 08:45:51;;;;;;;4.00;3.50;;;7.40;62.40;;;6.02;65.63;101198.31;12150871;19;20015;-82
2022/12/06 08:49:52;;;;;;;3.15;2.85;;;7.40;62.50;;;5.97;65.63;101195.03;12147761;19;20022;-81
2022/12/06 08:53:55;;;;;;;3.38;2.90;;;7.40;62.40;;;5.94;65.72;101195.94;12148877;19;20014;-82
2022/12/06 08:57:57;;;;;;;3.53;2.92;;;7.70;62.80;;;5.98;65.68;101197.56;12147708;19;20588;-82
2022/12/06 09:01:59;;;;;;;3.30;2.85;;;7.40;62.50;;;6.03;65.53;101206.97;12145356;19;20014;-82
2022/12/06 09:06:02;;;;;;;3.65;3.30;;;7.30;62.40;;;5.70;65.62;101163.78;12143671;19;20379;-82
2022/12/06 09:10:04;;;;;;;3.42;2.75;;;7.40;62.40;;;5.89;65.69;101186.59;12146654;19;20015;-82
2022/12/06 09:14:08;;;;;;;2.88;2.60;;;7.40;62.40;;;5.95;65.54;101201.97;12148589;19;20015;-81
2022/12/06 09:18:09;;;;;;;3.53;2.80;;;7.40;62.40;;;5.83;65.74;101181.53;12152791;19;21057;-82
2022/12/06 09:22:11;;;;;;;3.22;2.85;;;7.30;62.30;;;5.90;65.67;101202.06;12154673;19;20033;-81
2022/12/06 09:26:13;;;;;;;3.92;2.88;;;7.30;62.40;;;5.95;65.81;101201.97;12158501;19;20281;-81
2022/12/06 09:30:15;;;;;;;3.45;3.15;;;7.60;62.70;;;5.82;65.52;101175.53;12166244;19;20489;-82
2022/12/06 09:34:17;;;;;;;3.22;2.75;;;7.30;62.50;;;5.89;65.57;101184.84;12166342;19;20516;-82
2022/12/06 09:38:22;;;;;;;2.92;2.70;;;7.30;62.50;;;5.77;65.73;101165.28;12166099;19;20283;-82
2022/12/06 09:42:44;;;;;;;2.85;2.65;;;7.40;62.60;;;5.81;65.78;101168.66;12160840;19;20384;-82
2022/12/06 09:47:01;;;;;;;3.22;2.72;;;7.30;62.60;;;5.92;65.64;101186.50;12156496;19;20022;-82
2022/12/06 09:51:15;;;;;;;3.25;2.55;;;7.30;62.80;;;5.92;65.65;101176.97;12153139;19;20271;-84
2022/12/06 09:55:35;;;;;;;3.25;2.95;;;7.30;62.80;;;5.93;65.77;101172.63;12166111;19;20006;-84
2022/12/06 10:00:05;;;;;;;2.63;2.38;;;7.30;62.80;;;5.90;65.63;101170.13;12160772;19;20014;-85
2022/12/06 10:04:36;;;;;;;;;;;7.30;62.80;;;5.91;65.84;101164.03;12160409;19;20098;-84
2022/12/06 10:09:12;;;;;;;2.78;2.55;;;7.30;62.90;;;5.93;65.60;101164.84;12165513;19;19923;-85
2022/12/06 10:14:00;;;;;;;2.47;2.28;;;7.30;62.90;;;5.95;65.77;101156.16;12160991;19;20292;-85
2022/12/06 10:18:05;;;;;;;2.67;2.33;;;7.30;62.90;;;5.96;65.71;101150.06;12161997;19;20015;-84
2022/12/06 10:22:34;;;;;;;3.78;3.08;;;7.50;63.00;;;5.96;65.78;101151.81;12161619;19;20451;-85
2022/12/06 10:26:52;;;;;;;3.28;2.45;;;7.30;62.90;;;5.88;65.61;101143.41;12160618;19;20019;-84
2022/12/06 10:31:00;;;;;;;2.92;2.55;;;7.30;62.80;;;5.83;65.78;101122.78;12161468;19;20463;-84
2022/12/06 10:35:16;;;;;;;3.20;2.42;;;7.50;62.90;;;5.98;65.83;101144.88;12160898;19;20424;-84
2022/12/06 10:39:26;;;;;;;2.88;2.58;;;7.40;62.90;;;5.95;65.79;101119.88;12162195;19;20011;-85
2022/12/06 10:43:56;;;;;;;3.10;2.80;;;7.40;62.80;;;6.02;65.60;101137.84;12159781;19;20025;-85
2022/12/06 10:48:01;;;;;;;2.65;2.45;;;7.40;62.70;;;6.00;65.75;101129.28;12163830;19;20484;-84
2022/12/06 10:52:19;;;;;;;4.50;2.60;;;7.40;62.70;;;6.04;65.60;101141.25;12163055;19;20014;-84
2022/12/06 10:56:31;;;;;;;2.90;2.60;;;7.40;62.70;;;6.04;65.59;101123.09;12155324;19;20025;-84
2022/12/06 11:00:52;;;;;;;2.42;2.00;;;7.40;62.60;;;6.03;65.50;101129.19;12158826;19;20010;-84
2022/12/06 11:05:01;;;;;;;2.35;2.15;;;7.40;62.60;;;6.02;65.92;101119.69;12160133;19;20529;-84
2022/12/06 11:09:44;;;;;;;2.83;2.58;;;7.50;62.70;;;6.05;65.63;101124.78;12157297;19;20022;-84
2022/12/06 11:13:48;;;;;;;2.03;1.83;;;7.50;62.70;;;6.14;65.68;101125.38;12153076;19;20023;-84
2022/12/06 11:18:12;;;;;;;2.03;1.92;;;7.50;62.60;;;6.11;65.91;101120.28;12165600;19;20025;-84
2022/12/06 11:22:39;;;;;;;2.63;2.40;;;7.50;62.50;;;6.04;65.69;101103.19;12164687;19;20460;-83
2022/12/06 11:26:47;;;;;;;2.60;2.40;;;7.50;62.50;;;6.17;65.83;101119.22;12165195;19;20029;-82
2022/12/06 11:30:53;;;;;;;2.03;1.85;;;7.60;62.50;;;6.11;65.61;101109.91;12162229;19;20026;-83
2022/12/06 11:34:59;;;;;;;2.25;2.05;;;7.50;62.40;;;6.06;65.89;101096.22;12162989;19;20035;-83
2022/12/06 11:39:02;;;;;;;2.55;2.33;;;7.50;62.30;;;6.10;65.76;101095.25;12162964;19;20014;-82
2022/12/06 11:43:11;;;;;;;1.83;1.67;;;7.60;62.40;;;6.11;65.89;101093.50;12164564;19;20411;-82
2022/12/06 11:47:19;;;;;;;2.58;2.38;;;7.50;62.40;;;6.16;65.80;101087.28;12156718;19;20019;-83
2022/12/06 11:51:24;;;;;;;2.30;2.03;;;7.60;62.50;;;6.14;65.63;101078.69;12156466;19;20789;-81
2022/12/06 11:55:30;;;;;;;;;;;7.60;62.40;;;6.13;65.58;101074.41;12154998;19;20030;-84
2022/12/06 11:59:31;;;;;;;2.33;2.03;;;7.60;62.50;;;6.17;65.50;101077.75;12156926;19;20304;-84
2022/12/06 12:03:37;;;;;;;2.03;1.77;;;7.60;62.40;;;6.13;65.76;101061.44;12157822;19;20014;-82
2022/12/06 12:07:42;;;;;;;2.40;2.20;;;7.60;62.40;;;6.13;65.82;101061.44;12154724;19;20019;-83
2022/12/06 12:11:58;;;;;;;2.38;1.95;;;7.60;62.40;;;6.18;65.75;101071.66;12153766;19;20022;-83
2022/12/06 12:16:05;;;;;;;2.08;1.88;;;7.60;62.40;;;6.18;65.70;101056.97;12151872;19;20018;-82
2022/12/06 12:20:17;;;;;;;2.63;1.83;;;7.60;62.40;;;6.28;65.62;101072.22;12157692;19;20394;-82
2022/12/06 12:25:00;;;;;;;2.13;1.92;;;7.70;62.40;;;6.23;65.51;101061.16;12155774;19;20023;-83
2022/12/06 12:29:14;;;;;;;2.13;1.92;;;7.60;62.20;;;6.19;65.57;101048.28;12147711;19;20393;-83
2022/12/06 12:33:20;;;;;;;2.53;2.33;;;7.70;62.20;;;6.24;65.63;101042.97;12156739;19;20015;-83
2022/12/06 12:37:22;;;;;;;2.47;2.17;;;7.70;62.30;;;6.19;65.83;101030.13;12144890;19;20019;-83
2022/12/06 12:41:28;;;;;;;2.35;2.15;;;7.70;62.30;;;6.25;65.80;101038.63;12161312;19;20114;-84
2022/12/06 12:45:31;;;;;;;2.92;1.88;;;7.70;62.30;;;6.22;65.72;101033.53;12161150;19;20038;-82
2022/12/06 12:49:37;;;;;;;2.20;1.88;;;7.70;62.10;;;6.32;65.64;101051.34;12157873;19;20021;-83
2022/12/06 12:53:43;;;;;;;2.10;1.83;;;7.70;62.10;;;6.18;65.79;101023.25;12160227;19;20014;-83
2022/12/06 12:57:52;;;;;;;2.75;2.10;;;7.70;62.20;;;6.27;65.50;101037.66;12158613;19;20109;-83
2022/12/06 13:02:37;;;;;;;2.50;2.03;;;7.70;62.20;;;6.33;65.48;101041.81;12173900;19;20395;-83
2022/12/06 13:06:44;;;;;;;3.00;2.42;;;7.70;62.00;;;6.24;65.66;101037.78;12159266;19;20023;-83
2022/12/06 13:10:50;;;;;;;4.50;2.80;;;7.70;62.00;;;6.20;65.63;101034.41;12157128;19;20823;-83
2022/12/06 13:15:10;;;;;;;2.75;2.55;;;7.70;62.00;;;6.24;65.70;101047.28;12170077;19;20022;-83
2022/12/06 13:19:17;;;;;;;3.42;2.40;;;7.70;61.90;;;6.24;65.61;101052.47;12173122;19;20288;-85
2022/12/06 13:23:24;;;;;;;2.58;2.38;;;7.60;62.00;;;6.15;65.45;101044.06;12193310;19;20324;-85
2022/12/06 13:27:39;;;;;;;3.70;2.35;;;7.60;61.90;;;6.15;65.51;101049.25;12196907;19;20013;-84
2022/12/06 13:31:41;;;;;;;2.45;2.22;;;7.50;61.80;;;6.15;65.66;101043.22;12171001;19;21114;-83
2022/12/06 13:35:59;;;;;;;2.53;2.33;;;7.60;62.70;;;6.16;65.67;101040.59;12169877;19;20746;-83
2022/12/06 13:40:04;;;;;;;2.28;2.13;;;7.60;62.00;;;5.92;65.52;101008.50;12169482;19;20022;-84
2022/12/06 13:44:49;;;;;;;3.08;2.78;;;7.60;61.90;;;6.18;65.49;101051.78;12177063;19;20015;-84
2022/12/06 13:48:53;;;;;;;2.53;2.33;;;7.50;61.90;;;6.22;65.73;101049.94;12169221;19;20015;-83
2022/12/06 13:52:59;;;;;;;2.72;2.20;;;7.80;62.20;;;6.19;65.65;101040.50;12169790;19;20387;-84
2022/12/06 13:57:19;;;;;;;3.67;2.15;;;7.60;62.00;;;6.19;65.47;101035.31;12165509;19;20545;-84
2022/12/06 14:01:41;;;;;;;1.92;1.83;;;7.60;62.00;;;6.10;65.50;101024.38;12168650;19;20027;-83
2022/12/06 14:06:12;;;;;;;2.50;2.30;;;7.60;62.00;;;6.23;65.46;101040.41;12169442;19;21028;-85
2022/12/06 14:10:14;;;;;;;1.98;1.88;;;7.60;62.10;;;6.22;65.43;101025.75;12163096;19;20316;-84
2022/12/06 14:14:19;;;;;;;2.42;2.17;;;7.60;62.00;;;6.28;65.64;101033.31;12168638;19;20019;-84
2022/12/06 14:18:26;;;;;;;3.40;2.55;;;7.60;61.90;;;6.23;65.44;101030.03;12170000;19;20398;-84
2022/12/06 14:22:33;;;;;;;2.63;2.40;;;7.60;62.00;;;6.22;65.63;101017.97;12167005;19;20052;-84
2022/12/06 14:26:35;;;;;;;3.05;2.75;;;7.70;62.10;;;6.18;65.53;101015.47;12165563;19;20019;-84
2022/12/06 14:30:38;;;;;;;3.03;2.80;;;7.70;62.00;;;6.23;65.53;101017.06;12173048;19;20050;-84
2022/12/06 14:34:39;;;;;;;2.28;2.13;;;7.70;62.00;;;6.29;65.50;101029.81;12168922;19;20578;-84
2022/12/06 14:38:41;;;;;;;2.53;2.33;;;7.70;62.10;;;6.27;65.51;101019.53;12185446;19;20019;-84
2022/12/06 14:43:00;;;;;;;2.28;2.10;;;7.70;62.00;;;6.34;65.52;101033.13;12163316;19;20047;-85
2022/12/06 14:47:02;;;;;;;2.33;2.13;;;7.70;62.00;;;6.27;65.50;101010.91;12173934;19;20013;-84
2022/12/06 14:51:05;;;;;;;2.67;2.15;;;7.70;62.00;;;6.09;65.44;100976.03;12165167;19;20022;-84
2022/12/06 14:55:18;;;;;;;2.85;2.55;;;7.70;62.00;;;6.04;65.43;100968.41;12163690;19;20844;-84
2022/12/06 14:59:23;;;;;;;2.97;2.75;;;7.70;62.00;;;6.05;65.65;100970.09;12165401;19;20026;-84
2022/12/06 15:03:34;;;;;;;3.85;3.25;;;7.70;62.00;;;6.37;65.60;101027.81;12161977;19;20028;-84
2022/12/06 15:07:41;;;;;;;3.85;2.83;;;7.70;62.00;;;6.32;65.57;101008.97;12167422;19;20428;-85
2022/12/06 15:16:06;;;;;;;3.13;2.92;;;7.70;61.90;;;6.34;65.44;101030.53;12167597;19;20015;-84
2022/12/06 15:20:14;;;;;;;3.38;3.08;;;7.70;61.90;;;6.31;65.55;101028.03;12164666;19;20281;-84
2022/12/06 15:24:22;;;;;;;3.45;3.00;;;7.70;61.90;;;6.30;65.57;101019.41;12165831;19;20468;-85
2022/12/06 15:28:24;;;;;;;3.95;3.65;;;7.70;62.00;;;6.07;65.42;100983.00;12162863;19;20465;-84
2022/12/06 15:32:26;;;;;;;4.50;3.67;;;7.70;62.00;;;6.32;65.45;101019.34;12167168;19;20635;-84
2022/12/06 15:36:34;;;;;;;3.78;3.17;;;7.70;62.10;;;6.21;65.44;100998.94;12166761;19;21041;-85
2022/12/06 15:40:38;;;;;;;2.83;2.63;;;7.70;62.10;;;6.24;65.49;101005.78;12165349;19;20019;-84
2022/12/06 15:44:43;;;;;;;2.63;2.43;;;7.90;62.20;;;6.18;65.56;101005.13;12164049;19;20031;-84
2022/12/06 15:48:45;;;;;;;3.28;2.80;;;7.80;62.30;;;6.25;65.58;101013.53;12162030;19;20046;-84
2022/12/06 15:52:47;;;;;;;2.80;2.60;;;7.60;62.10;;;6.13;65.63;101003.53;12165180;19;20492;-85
2022/12/06 15:56:50;;;;;;;3.42;3.13;;;7.60;62.30;;;6.22;65.55;101007.59;12172945;19;20014;-85
2022/12/06 16:00:55;;;;;;;5.15;4.70;;;7.60;62.30;;;6.28;65.61;101022.94;12163211;19;20328;-85
2022/12/06 16:04:56;;;;;;;4.40;4.00;;;7.60;62.30;;;6.29;65.58;101025.50;12160586;19;20661;-84
2022/12/06 16:08:58;;;;;;;3.80;3.40;;;7.70;62.40;;;6.25;65.53;101025.66;12155857;19;20829;-85
2022/12/06 16:17:21;;;;;;;2.35;2.15;;;7.60;62.50;;;6.12;65.46;101013.06;12161370;19;20014;-85
2022/12/06 16:21:32;;;;;;;2.47;2.28;;;7.60;62.40;;;6.20;65.64;101026.63;12167236;19;20011;-85
2022/12/06 16:25:34;;;;;;;2.28;2.03;;;7.60;62.50;;;6.08;65.59;101002.88;12164302;19;20014;-82
2022/12/06 16:29:35;;;;;;;2.28;2.08;;;7.60;62.60;;;6.22;65.44;101034.38;12157946;19;20014;-83
2022/12/06 16:33:37;;;;;;;2.88;2.17;;;7.70;62.70;;;6.18;65.46;101022.38;12162657;19;20057;-83
2022/12/06 16:37:40;;;;;;;2.90;1.80;;;7.60;62.60;;;5.73;65.63;100948.63;12173559;19;20389;-83
2022/12/06 16:41:41;;;;;;;2.70;2.00;;;7.50;62.60;;;6.13;65.66;101022.56;12173469;19;20097;-83
2022/12/06 16:45:45;;;;;;;1.75;1.65;;;7.50;62.60;;;5.68;65.54;100954.84;12173375;19;20039;-83
2022/12/06 16:49:47;;;;;;;1.90;1.80;;;7.50;62.60;;;5.90;65.49;100973.16;12166101;19;20025;-83
2022/12/06 16:53:49;;;;;;;1.50;1.40;;;7.50;62.70;;;6.18;65.65;101014.63;12170991;19;20015;-84
2022/12/06 16:57:50;;;;;;;1.83;1.52;;;7.50;62.90;;;6.18;65.62;101028.44;12173778;19;20014;-83
2022/12/06 17:01:54;;;;;;;2.15;1.60;;;7.50;62.80;;;6.05;65.62;101000.34;12171565;19;20471;-83
2022/12/06 17:05:56;;;;;;;2.00;1.90;;;7.60;63.00;;;6.11;65.60;101018.31;12170651;19;20839;-83
2022/12/06 17:09:58;;;;;;;2.03;1.83;;;7.40;62.80;;;6.14;65.60;101029.44;12167594;19;20026;-84
2022/12/06 17:14:00;;;;;;;1.92;1.83;;;7.50;62.90;;;5.86;65.74;100979.31;12173844;19;20439;-85
2022/12/06 17:18:02;;;;;;;2.42;2.22;;;7.50;63.00;;;6.00;65.65;100999.66;12180140;19;20530;-83
2022/12/06 17:22:06;;;;;;;2.22;2.05;;;7.40;62.90;;;6.16;65.63;101029.41;12174469;19;20924;-83
2022/12/06 17:26:07;;;;;;;2.35;2.05;;;7.50;63.00;;;5.89;65.48;100984.44;12173401;19;20018;-83
2022/12/06 17:30:16;;;;;;;2.50;2.15;;;7.50;63.10;;;5.93;65.66;100996.38;12171955;19;20018;-84
2022/12/06 17:34:19;;;;;;;2.50;2.30;;;7.40;63.00;;;6.09;65.57;101020.94;12172453;19;20025;-84
2022/12/06 17:38:20;;;;;;;2.17;2.08;;;7.40;62.90;;;6.14;65.64;101034.63;12171343;19;20018;-84
2022/12/06 17:46:42;;;;;;;2.47;2.28;;;7.50;63.10;;;6.11;65.56;101026.09;12167185;19;20038;-83
2022/12/06 17:50:44;;;;;;;2.45;1.92;;;7.60;63.20;;;6.11;65.57;101031.28;12170169;19;20014;-83
2022/12/06 17:54:45;;;;;;;3.80;2.08;;;7.70;63.30;;;6.13;65.73;101035.53;12175864;19;20599;-83
2022/12/06 17:58:47;;;;;;;3.03;2.72;;;7.50;63.20;;;6.18;65.53;101041.41;12179394;19;20018;-83
2022/12/06 18:02:49;;;;;;;2.63;2.42;;;7.50;63.20;;;6.10;65.72;101025.25;12170383;19;20019;-83
2022/12/06 18:06:50;;;;;;;5.80;4.18;;;7.50;63.20;;;6.19;65.67;101035.31;12163617;19;20105;-83